Time;durP1;ratioP1;P1;durP2;ratioP2;P2;SDS_P1;SDS_P2;PMS_P1;PMS_P2;Temp;Humidity;BMP_temperature;BMP_pressure;BME280_temperature;BME280_humidity;BME280_pressure;Samples;Min_cycle;Max_cycle;Signal;HPM_P1;HPM_P2
2023/09/13 00:00:04;;;;;;;10.85;2.10;;;;;;;14.18;97.29;100234.16;5104140;28;20044;-71
2023/09/13 00:02:30;;;;;;;2.90;2.30;;;;;;;14.16;96.99;100238.56;5085997;28;20498;-72
2023/09/13 00:04:56;;;;;;;5.00;1.52;;;;;;;14.10;97.11;100240.44;5085968;28;20028;-71
2023/09/13 00:07:22;;;;;;;1.73;0.93;;;;;;;14.06;97.13;100245.75;5103729;28;20103;-70
2023/09/13 00:09:47;;;;;;;1.10;1.00;;;;;;;13.98;97.16;100233.78;5104262;28;20016;-71
2023/09/13 00:12:13;;;;;;;2.40;1.00;;;;;;;13.98;97.31;100238.13;5085852;28;20024;-71
2023/09/13 00:14:38;;;;;;;6.32;2.05;;;;;;;13.94;97.48;100228.69;5104169;28;20080;-71
2023/09/13 00:17:04;;;;;;;1.95;1.30;;;;;;;13.97;97.94;100233.81;5104179;28;20023;-70
2023/09/13 00:19:30;;;;;;;3.42;1.42;;;;;;;14.00;98.31;100233.75;5104150;28;20020;-70
2023/09/13 00:21:56;;;;;;;1.15;0.90;;;;;;;14.04;98.23;100230.13;5085524;28;20119;-71
2023/09/13 00:24:21;;;;;;;3.90;1.70;;;;;;;14.05;97.82;100237.09;5103764;28;20020;-71
2023/09/13 00:26:46;;;;;;;1.45;1.00;;;;;;;14.04;98.00;100243.19;5085586;28;20020;-71
2023/09/13 00:29:12;;;;;;;3.00;1.40;;;;;;;14.07;97.81;100237.94;5085781;28;20020;-72
2023/09/13 00:31:37;;;;;;;2.45;1.48;;;;;;;14.03;97.98;100241.50;5103759;28;20031;-72
2023/09/13 00:34:03;;;;;;;1.58;1.23;;;;;;;13.99;98.11;100240.69;5103864;28;20032;-71
2023/09/13 00:36:28;;;;;;;1.90;1.30;;;;;;;13.92;97.79;100243.50;5103299;28;20024;-71
2023/09/13 00:38:53;;;;;;;3.50;1.65;;;;;;;13.86;98.03;100234.97;5103805;28;20037;-72
2023/09/13 00:41:19;;;;;;;1.58;1.02;;;;;;;13.87;97.96;100230.56;5103885;28;20020;-71
2023/09/13 00:43:44;;;;;;;4.53;1.33;;;;;;;13.85;98.15;100228.00;5085525;28;20012;-72
2023/09/13 00:46:10;;;;;;;1.88;1.02;;;;;;;13.84;98.09;100233.25;5103836;28;20043;-72
2023/09/13 00:48:35;;;;;;;1.38;1.02;;;;;;;13.79;97.74;100230.78;5103425;28;20024;-71
2023/09/13 00:51:01;;;;;;;1.88;0.93;;;;;;;13.72;97.42;100229.22;5103562;28;20094;-71
2023/09/13 00:53:29;;;;;;;2.97;1.40;;;;;;;13.61;97.24;100230.31;5103522;28;20156;-72
2023/09/13 00:55:55;;;;;;;2.17;1.35;;;;;;;13.49;97.19;100223.63;5103778;28;20125;-72
2023/09/13 00:58:21;;;;;;;1.40;1.15;;;;;;;13.45;96.90;100231.56;5085370;28;20024;-71
2023/09/13 01:00:49;;;;;;;2.13;1.13;;;;;;;13.37;96.78;100237.78;5085464;28;20020;-72
2023/09/13 01:03:16;;;;;;;4.72;1.20;;;;;;;13.32;96.88;100237.03;5106345;28;20034;-72
2023/09/13 01:05:43;;;;;;;4.38;1.50;;;;;;;13.27;96.82;100231.09;5107018;28;20023;-71
2023/09/13 01:08:08;;;;;;;4.45;1.65;;;;;;;13.26;96.90;100230.22;5088829;28;20069;-71
2023/09/13 01:10:34;;;;;;;2.33;0.90;;;;;;;13.29;96.85;100229.28;5107223;28;20066;-71
2023/09/13 01:12:59;;;;;;;3.00;1.63;;;;;;;13.25;96.93;100218.09;5107299;28;20073;-71
2023/09/13 01:15:33;;;;;;;1.95;1.17;;;;;;;13.25;96.99;100223.31;5088569;28;20020;-71
2023/09/13 01:18:16;;;;;;;6.20;1.35;;;;;;;13.25;96.94;100225.03;5106959;28;20070;-71
2023/09/13 01:21:25;;;;;;;1.35;1.08;;;;;;;13.24;96.93;100228.56;5106843;28;20039;-71
2023/09/13 01:23:54;;;;;;;1.10;1.00;;;;;;;13.21;96.83;100236.44;5106950;28;20032;-71
2023/09/13 01:26:46;;;;;;;3.58;1.60;;;;;;;13.15;96.82;100237.41;5088595;28;20031;-71
2023/09/13 01:29:14;;;;;;;2.17;1.40;;;;;;;13.07;96.58;100232.38;5107081;28;20030;-71
2023/09/13 01:31:41;;;;;;;3.35;1.45;;;;;;;13.06;96.57;100237.63;5106797;28;20028;-71
2023/09/13 01:34:07;;;;;;;1.80;1.13;;;;;;;13.01;96.63;100229.91;5106969;28;20106;-72
2023/09/13 01:36:32;;;;;;;2.83;1.00;;;;;;;12.96;96.29;100222.19;5106291;28;20074;-71
2023/09/13 01:38:57;;;;;;;2.60;1.98;;;;;;;12.93;96.08;100226.59;5106474;28;20476;-71
2023/09/13 01:41:27;;;;;;;6.13;1.42;;;;;;;12.86;96.47;100231.94;5106628;28;20027;-71
2023/09/13 01:43:54;;;;;;;9.85;2.30;;;;;;;12.80;96.16;100216.44;5106419;28;20024;-71
2023/09/13 01:46:27;;;;;;;2.22;1.50;;;;;;;12.73;96.51;100209.66;5088225;28;20031;-71
2023/09/13 01:48:55;;;;;;;1.85;1.33;;;;;;;12.72;96.17;100207.91;5106361;28;20457;-71
2023/09/13 01:51:21;;;;;;;3.22;1.63;;;;;;;12.64;96.58;100190.72;5087883;28;20031;-71
2023/09/13 01:53:47;;;;;;;2.78;1.35;;;;;;;12.72;96.38;100193.16;5087875;28;20052;-71
2023/09/13 01:56:13;;;;;;;2.00;1.27;;;;;;;12.71;96.69;100198.41;5106294;28;20019;-71
2023/09/13 01:58:38;;;;;;;1.20;1.10;;;;;;;12.76;96.95;100200.00;5106144;28;20046;-71
2023/09/13 02:01:03;;;;;;;3.03;1.52;;;;;;;12.78;96.68;100202.59;5088140;28;20551;-73
2023/09/13 02:03:29;;;;;;;2.70;1.23;;;;;;;12.77;96.79;100191.31;5104666;28;20027;-71
2023/09/13 02:05:54;;;;;;;1.65;1.35;;;;;;;12.81;96.88;100188.66;5105759;28;20161;-73
2023/09/13 02:08:19;;;;;;;1.70;0.88;;;;;;;12.87;97.26;100199.81;5106118;28;20035;-72
2023/09/13 02:10:48;;;;;;;1.27;1.13;;;;;;;12.96;97.55;100195.25;5106157;28;20035;-72
2023/09/13 02:13:13;;;;;;;2.67;1.30;;;;;;;13.07;97.88;100193.28;5105618;28;20484;-72
2023/09/13 02:15:40;;;;;;;2.65;1.40;;;;;;;13.17;97.87;100203.50;5106010;28;20101;-72
2023/09/13 02:18:06;;;;;;;5.07;1.50;;;;;;;13.22;97.76;100210.34;5105809;28;20027;-72
2023/09/13 02:20:31;;;;;;;0.93;0.75;;;;;;;13.26;98.36;100203.28;5105707;28;20076;-72
2023/09/13 02:22:56;;;;;;;2.80;1.58;;;;;;;13.37;98.67;100214.31;5087758;28;20035;-72
2023/09/13 02:25:22;;;;;;;2.65;1.42;;;;;;;13.45;98.54;100208.09;5105932;28;20083;-72
2023/09/13 02:27:47;;;;;;;3.05;1.58;;;;;;;13.56;98.81;100208.69;5105344;28;20024;-72
2023/09/13 02:30:12;;;;;;;5.25;1.55;;;;;;;13.63;99.10;100217.25;5105632;28;20067;-73
2023/09/13 02:32:38;;;;;;;1.38;1.08;;;;;;;13.71;99.13;100206.63;5105587;28;20027;-72
2023/09/13 02:35:04;;;;;;;4.10;1.40;;;;;;;13.80;99.41;100214.22;5104224;28;20020;-72
2023/09/13 02:37:30;;;;;;;2.72;1.63;;;;;;;13.81;99.22;100210.72;5105445;28;20020;-72
2023/09/13 02:39:57;;;;;;;1.35;1.15;;;;;;;13.88;99.44;100217.50;5105304;28;20038;-71
2023/09/13 02:42:23;;;;;;;2.63;1.25;;;;;;;13.90;99.43;100208.78;5105159;28;20024;-71
2023/09/13 02:44:49;;;;;;;1.63;1.27;;;;;;;13.92;99.30;100202.63;5105427;28;20020;-72
2023/09/13 02:47:14;;;;;;;2.15;1.38;;;;;;;13.95;99.08;100199.06;5105313;28;20051;-71
2023/09/13 02:49:40;;;;;;;2.55;1.38;;;;;;;13.97;99.04;100197.28;5105021;28;20027;-72
2023/09/13 02:52:05;;;;;;;2.10;1.27;;;;;;;13.92;98.75;100192.19;5105005;28;20073;-72
2023/09/13 02:54:31;;;;;;;1.90;1.45;;;;;;;13.88;98.63;100199.22;5086678;28;20052;-72
2023/09/13 02:56:57;;;;;;;2.38;1.42;;;;;;;13.83;98.52;100203.72;5086926;28;20023;-72
2023/09/13 02:59:23;;;;;;;2.38;1.23;;;;;;;13.75;98.71;100211.72;5105165;28;20023;-72
2023/09/13 03:01:49;;;;;;;5.50;1.27;;;;;;;13.71;97.76;100217.91;5105018;28;20028;-73
2023/09/13 03:04:15;;;;;;;1.52;1.08;;;;;;;13.75;97.94;100214.31;5105076;28;20050;-72
2023/09/13 03:06:40;;;;;;;3.45;1.35;;;;;;;13.78;97.95;100210.81;5104660;28;20028;-72
2023/09/13 03:09:06;;;;;;;3.13;1.17;;;;;;;13.75;98.08;100218.72;5104799;28;20400;-71
2023/09/13 03:11:32;;;;;;;2.55;0.95;;;;;;;13.78;98.34;100222.97;5105049;28;20032;-72
2023/09/13 03:13:57;;;;;;;7.57;1.50;;;;;;;13.82;98.54;100225.47;5104697;28;20024;-72
2023/09/13 03:16:23;;;;;;;1.08;0.98;;;;;;;13.92;99.00;100222.63;5104767;28;20483;-72
2023/09/13 03:18:50;;;;;;;1.55;1.30;;;;;;;13.93;99.19;100224.38;5104736;28;20016;-72
2023/09/13 03:21:20;;;;;;;1.15;0.98;;;;;;;13.92;98.75;100228.72;5104679;28;20024;-72
2023/09/13 03:23:48;;;;;;;3.92;1.67;;;;;;;13.91;98.99;100236.59;5086324;28;20023;-72
2023/09/13 03:26:24;;;;;;;1.65;1.08;;;;;;;13.84;98.89;100228.03;5103889;28;20039;-72
2023/09/13 03:28:51;;;;;;;2.55;1.35;;;;;;;13.81;98.83;100229.00;5086269;28;20024;-71
2023/09/13 03:31:19;;;;;;;3.20;1.20;;;;;;;13.75;98.35;100234.38;5104522;28;20020;-71
2023/09/13 03:33:46;;;;;;;1.95;1.48;;;;;;;13.69;98.19;100237.13;5104585;28;20024;-72
2023/09/13 03:36:12;;;;;;;1.60;0.93;;;;;;;13.62;98.33;100245.09;5104284;28;20020;-71
2023/09/13 03:38:39;;;;;;;1.60;1.20;;;;;;;13.52;98.07;100233.16;5086248;28;20031;-72
2023/09/13 03:41:05;;;;;;;2.83;1.35;;;;;;;13.45;97.92;100244.59;5104482;28;20124;-71
2023/09/13 03:43:31;;;;;;;1.27;1.17;;;;;;;13.42;97.84;100249.88;5104463;28;20468;-73
2023/09/13 03:45:57;;;;;;;1.95;0.93;;;;;;;13.37;97.85;100253.44;5104453;28;20035;-72
2023/09/13 03:48:22;;;;;;;1.40;1.13;;;;;;;13.38;98.10;100251.69;5085971;28;20058;-72
2023/09/13 03:50:48;;;;;;;2.22;1.30;;;;;;;13.35;97.99;100265.69;5103983;28;20058;-72
2023/09/13 03:53:14;;;;;;;1.38;1.13;;;;;;;13.36;98.10;100256.09;5103989;28;20020;-71
2023/09/13 03:55:39;;;;;;;3.40;1.67;;;;;;;13.35;97.81;100262.19;5104572;28;20032;-71
2023/09/13 03:58:05;;;;;;;1.50;0.98;;;;;;;13.31;97.93;100256.19;5104266;28;20028;-71
2023/09/13 04:00:30;;;;;;;1.50;1.10;;;;;;;13.24;97.75;100252.84;5104155;28;20024;-72
2023/09/13 04:02:55;;;;;;;1.67;1.10;;;;;;;13.18;97.82;100253.00;5104133;28;20476;-72
2023/09/13 04:05:21;;;;;;;3.13;0.98;;;;;;;13.11;97.87;100244.47;5085888;28;20024;-71
2023/09/13 04:07:46;;;;;;;4.05;1.35;;;;;;;13.03;97.42;100246.38;5086105;28;20028;-73
2023/09/13 04:10:12;;;;;;;2.67;1.10;;;;;;;12.92;97.15;100232.72;5102773;28;20020;-73
2023/09/13 04:12:37;;;;;;;2.08;1.23;;;;;;;12.88;96.80;100242.31;5102811;28;20403;-74
2023/09/13 04:15:04;;;;;;;7.85;1.40;;;;;;;12.72;96.77;100233.97;5104583;28;20004;-73
2023/09/13 04:17:29;;;;;;;1.80;1.13;;;;;;;12.68;96.41;100234.94;5104211;28;20039;-72
2023/09/13 04:19:55;;;;;;;1.17;1.08;;;;;;;12.69;96.75;100241.84;5104190;28;20016;-71
2023/09/13 04:22:20;;;;;;;3.17;1.70;;;;;;;12.63;97.02;100232.41;5103873;28;20024;-71
2023/09/13 04:24:45;;;;;;;1.70;1.20;;;;;;;12.64;97.37;100248.00;5103965;28;20028;-70
2023/09/13 04:27:11;;;;;;;1.65;1.17;;;;;;;12.64;97.21;100244.53;5104002;28;20028;-71
2023/09/13 04:29:41;;;;;;;2.78;1.52;;;;;;;12.56;97.52;100234.28;5103959;28;20024;-70
2023/09/13 04:32:06;;;;;;;2.42;1.55;;;;;;;12.68;97.72;100250.56;5104137;28;20026;-71
2023/09/13 04:34:36;;;;;;;2.90;1.42;;;;;;;12.69;97.73;100254.88;5103880;28;20080;-72
2023/09/13 04:37:03;;;;;;;2.92;0.93;;;;;;;12.64;97.85;100248.00;5105850;28;20145;-70
2023/09/13 04:39:31;;;;;;;2.50;1.38;;;;;;;12.69;97.89;100241.84;5107994;28;20012;-71
2023/09/13 04:41:56;;;;;;;1.73;1.38;;;;;;;12.69;98.05;100241.84;5107862;28;20027;-72
2023/09/13 04:44:22;;;;;;;3.03;1.38;;;;;;;12.68;98.15;100237.53;5107584;28;20028;-72
2023/09/13 04:46:47;;;;;;;6.70;1.55;;;;;;;12.72;98.28;100247.00;5107935;28;20020;-72
2023/09/13 04:49:12;;;;;;;1.77;1.42;;;;;;;12.71;98.58;100240.94;5107664;28;20030;-73
2023/09/13 04:51:38;;;;;;;1.67;1.25;;;;;;;12.72;98.28;100252.19;5107385;28;20028;-72
2023/09/13 04:54:03;;;;;;;2.58;1.55;;;;;;;12.71;98.03;100253.09;5106924;28;20457;-73
2023/09/13 04:56:28;;;;;;;1.60;1.40;;;;;;;12.67;98.12;100248.84;5107735;28;20020;-72
2023/09/13 04:58:54;;;;;;;2.70;1.33;;;;;;;12.63;98.02;100245.44;5089230;28;20027;-72
2023/09/13 05:01:19;;;;;;;1.65;1.20;;;;;;;12.61;98.01;100253.28;5107522;28;20028;-72
2023/09/13 05:03:46;;;;;;;2.00;1.30;;;;;;;12.61;97.52;100240.25;5107545;28;20020;-68
2023/09/13 05:06:11;;;;;;;2.03;1.08;;;;;;;12.63;98.03;100250.66;5088909;28;20518;-72
2023/09/13 05:08:37;;;;;;;2.25;1.42;;;;;;;12.64;97.94;100250.63;5107054;28;20027;-72
2023/09/13 05:11:03;;;;;;;6.80;1.77;;;;;;;12.66;98.05;100260.13;5107231;28;20051;-71
2023/09/13 05:13:28;;;;;;;1.90;1.63;;;;;;;12.71;98.15;100258.31;5088874;28;20032;-71
2023/09/13 05:15:53;;;;;;;1.73;1.20;;;;;;;12.72;98.26;100254.81;5107343;28;20028;-71
2023/09/13 05:18:19;;;;;;;1.10;1.00;;;;;;;12.79;98.54;100255.53;5107029;28;20016;-69
2023/09/13 05:20:44;;;;;;;2.15;1.80;;;;;;;12.85;98.56;100260.63;5106849;28;20424;-71
2023/09/13 05:23:09;;;;;;;4.72;1.52;;;;;;;12.90;98.92;100258.78;5107162;28;20020;-70
2023/09/13 05:25:41;;;;;;;2.40;1.27;;;;;;;13.00;99.36;100259.47;5106902;28;20032;-69
2023/09/13 05:28:07;;;;;;;4.18;2.17;;;;;;;13.11;99.88;100249.69;5106573;28;20028;-70
2023/09/13 05:30:33;;;;;;;2.08;1.50;;;;;;;13.27;100.00;100257.16;5088497;28;20350;-70
2023/09/13 05:32:59;;;;;;;2.88;2.50;;;;;;;13.38;100.00;100263.00;5088239;28;20051;-71
2023/09/13 05:35:24;;;;;;;2.33;1.63;;;;;;;13.61;100.00;100266.84;5106718;28;20029;-70
2023/09/13 05:37:50;;;;;;;4.13;2.30;;;;;;;13.84;100.00;100275.00;5106628;28;20373;-69
2023/09/13 05:40:15;;;;;;;1.80;1.23;;;;;;;13.93;100.00;100269.56;5106704;28;20024;-70
2023/09/13 05:42:40;;;;;;;2.55;1.83;;;;;;;14.00;100.00;100278.09;5088131;28;20111;-70
2023/09/13 05:45:07;;;;;;;2.42;1.80;;;;;;;13.92;100.00;100286.13;5106459;28;20486;-71
2023/09/13 05:47:33;;;;;;;2.88;2.10;;;;;;;13.96;100.00;100272.09;5106117;28;20023;-70
2023/09/13 05:49:58;;;;;;;2.83;2.25;;;;;;;13.90;100.00;100271.41;5106626;28;20027;-70
2023/09/13 05:52:23;;;;;;;3.00;1.83;;;;;;;13.83;100.00;100274.19;5106290;28;20111;-69
2023/09/13 05:54:49;;;;;;;3.72;1.92;;;;;;;13.77;100.00;100276.06;5106408;28;20682;-71
2023/09/13 05:57:14;;;;;;;2.95;2.10;;;;;;;13.64;100.00;100281.59;5106585;28;20033;-70
2023/09/13 05:59:39;;;;;;;7.82;2.85;;;;;;;13.61;100.00;100289.47;5105011;28;20050;-70
2023/09/13 06:02:06;;;;;;;4.15;2.97;;;;;;;13.53;100.00;100281.81;5106500;28;20039;-70
2023/09/13 06:04:32;;;;;;;3.72;2.65;;;;;;;13.46;99.66;100291.50;5106536;28;20018;-70
2023/09/13 06:06:57;;;;;;;4.85;2.75;;;;;;;13.50;100.00;100292.28;5106183;28;20024;-70
2023/09/13 06:09:23;;;;;;;2.80;1.95;;;;;;;13.44;99.41;100285.47;5106108;28;20352;-69
2023/09/13 06:11:48;;;;;;;5.10;3.38;;;;;;;13.47;99.50;100282.78;5106131;28;20058;-71
2023/09/13 06:14:13;;;;;;;2.95;2.40;;;;;;;13.32;99.66;100267.47;5106267;28;20379;-70
2023/09/13 06:16:39;;;;;;;5.18;2.50;;;;;;;13.36;99.89;100292.59;5087942;28;20055;-70
2023/09/13 06:19:04;;;;;;;3.55;2.53;;;;;;;13.35;99.74;100283.94;5105933;28;20016;-71
2023/09/13 06:21:30;;;;;;;3.25;2.15;;;;;;;13.42;100.00;100283.78;5087482;28;20056;-71
2023/09/13 06:23:55;;;;;;;2.90;1.98;;;;;;;13.50;100.00;100284.44;5105988;28;20039;-70
2023/09/13 06:26:20;;;;;;;3.85;2.33;;;;;;;13.61;100.00;100290.31;5106063;28;20020;-71
2023/09/13 06:28:46;;;;;;;3.42;2.42;;;;;;;13.72;100.00;100290.06;5087427;28;20016;-70
2023/09/13 06:31:11;;;;;;;3.40;2.20;;;;;;;13.84;100.00;100288.06;5105865;28;20024;-70
2023/09/13 06:33:37;;;;;;;4.30;3.03;;;;;;;13.94;100.00;100286.09;5105760;28;20028;-70
2023/09/13 06:36:02;;;;;;;5.93;2.47;;;;;;;14.12;100.00;100296.06;5105648;28;20050;-71
2023/09/13 06:38:28;;;;;;;4.68;2.33;;;;;;;14.25;100.00;100303.59;5105673;28;20031;-70
2023/09/13 06:40:53;;;;;;;3.42;2.22;;;;;;;14.23;100.00;100293.19;5105556;28;20066;-71
2023/09/13 06:43:18;;;;;;;4.80;2.75;;;;;;;14.45;100.00;100304.84;5104418;28;20107;-70
2023/09/13 06:45:46;;;;;;;3.38;2.17;;;;;;;14.55;100.00;100308.94;5105620;28;20376;-70
2023/09/13 06:48:12;;;;;;;1.85;1.58;;;;;;;14.57;100.00;100301.06;5105338;28;20102;-70
2023/09/13 06:50:37;;;;;;;3.40;1.60;;;;;;;14.50;100.00;100306.41;5105168;28;20020;-69
2023/09/13 06:53:02;;;;;;;1.88;1.58;;;;;;;14.47;100.00;100313.50;5086873;28;20020;-70
2023/09/13 06:55:31;;;;;;;2.97;2.05;;;;;;;14.24;99.76;100317.53;5105517;28;20084;-70
2023/09/13 06:57:56;;;;;;;11.25;1.90;;;;;;;14.10;99.50;100321.38;5105317;28;20203;-70
2023/09/13 07:00:21;;;;;;;2.20;1.27;;;;;;;14.05;98.78;100331.06;5104140;28;20457;-69
2023/09/13 07:02:47;;;;;;;1.60;1.35;;;;;;;13.98;98.51;100332.97;5086897;28;20020;-71
2023/09/13 07:05:12;;;;;;;1.77;1.55;;;;;;;14.04;99.04;100321.50;5103984;28;20571;-70
2023/09/13 07:07:37;;;;;;;3.70;1.50;;;;;;;14.15;98.88;100326.47;5086902;28;20069;-71
2023/09/13 07:10:03;;;;;;;2.20;1.58;;;;;;;14.17;98.51;100316.00;5105176;28;20049;-69
2023/09/13 07:12:28;;;;;;;1.77;1.40;;;;;;;14.20;98.79;100321.97;5105125;28;20472;-70
2023/09/13 07:14:54;;;;;;;2.22;1.67;;;;;;;14.19;97.84;100311.56;5086714;28;20111;-70
2023/09/13 07:17:19;;;;;;;2.35;1.63;;;;;;;14.13;97.49;100326.53;5104911;28;20024;-71
2023/09/13 07:19:45;;;;;;;2.40;1.67;;;;;;;14.17;98.14;100329.06;5104968;28;20031;-71
2023/09/13 07:22:10;;;;;;;1.33;1.20;;;;;;;14.24;97.75;100326.25;5086414;28;20028;-70
2023/09/13 07:24:35;;;;;;;2.25;1.60;;;;;;;14.26;96.11;100326.22;5104872;28;20024;-70
2023/09/13 07:27:01;;;;;;;3.75;1.70;;;;;;;14.31;95.73;100324.34;5103483;28;20028;-71
2023/09/13 07:29:26;;;;;;;4.50;1.27;;;;;;;14.40;96.45;100331.06;5104719;28;20444;-70
2023/09/13 07:31:52;;;;;;;2.92;1.70;;;;;;;14.48;96.26;100331.75;5104749;28;20023;-70
2023/09/13 07:34:17;;;;;;;3.03;1.40;;;;;;;14.60;96.88;100334.94;5104476;28;20100;-70
2023/09/13 07:36:42;;;;;;;2.13;1.42;;;;;;;14.82;96.61;100334.38;5104307;28;20024;-71
2023/09/13 07:39:09;;;;;;;2.60;1.63;;;;;;;14.96;95.54;100327.03;5086398;28;20018;-71
2023/09/13 07:41:35;;;;;;;1.42;1.33;;;;;;;14.93;95.22;100326.25;5104676;28;20020;-70
2023/09/13 07:44:00;;;;;;;1.83;1.65;;;;;;;14.94;95.70;100326.19;5104528;28;20023;-70
2023/09/13 07:46:25;;;;;;;1.00;0.90;;;;;;;15.08;96.24;100335.41;5104644;28;20019;-71
2023/09/13 07:48:51;;;;;;;2.58;1.58;;;;;;;15.05;94.05;100336.34;5104186;28;20480;-71
2023/09/13 07:51:16;;;;;;;2.55;1.83;;;;;;;15.01;94.08;100341.72;5104377;28;20035;-70
2023/09/13 07:53:42;;;;;;;4.25;1.90;;;;;;;15.19;95.53;100349.03;5104076;28;20055;-70
2023/09/13 07:56:07;;;;;;;5.55;2.22;;;;;;;15.45;95.52;100354.38;5104533;28;20492;-71
2023/09/13 07:58:33;;;;;;;7.03;2.20;;;;;;;15.70;96.15;100340.59;5104349;28;20020;-70
2023/09/13 08:00:58;;;;;;;1.73;1.42;;;;;;;15.82;93.35;100353.28;5104535;28;20020;-70
2023/09/13 08:03:24;;;;;;;11.00;2.10;;;;;;;15.82;92.71;100369.00;5104500;28;20027;-70
2023/09/13 08:05:50;;;;;;;3.47;2.28;;;;;;;16.07;94.42;100359.53;5104224;28;20036;-71
2023/09/13 08:08:22;;;;;;;3.47;1.80;;;;;;;16.29;92.89;100367.56;5104368;28;20020;-70
2023/09/13 08:10:48;;;;;;;1.23;1.02;;;;;;;16.29;90.57;100366.69;5105202;28;20024;-71
2023/09/13 08:13:13;;;;;;;3.17;1.80;;;;;;;16.24;88.99;100374.69;5090317;28;20043;-71
2023/09/13 08:15:39;;;;;;;1.10;1.00;;;;;;;16.09;87.59;100376.91;5108847;28;20031;-70
2023/09/13 08:18:04;;;;;;;1.83;1.10;;;;;;;15.91;87.21;100377.47;5108471;28;20019;-70
2023/09/13 08:20:30;;;;;;;2.67;1.10;;;;;;;15.80;88.36;100378.63;5108254;28;20356;-70
2023/09/13 08:22:55;;;;;;;3.38;1.15;;;;;;;15.85;88.50;100388.97;5108214;28;20393;-70
2023/09/13 08:25:20;;;;;;;0.95;0.90;;;;;;;16.02;89.25;100385.88;5090033;28;20475;-70
2023/09/13 08:27:46;;;;;;;1.23;0.85;;;;;;;16.15;87.96;100375.00;5108197;28;20051;-70
2023/09/13 08:30:11;;;;;;;1.50;1.00;;;;;;;16.38;88.42;100386.47;5108191;28;20082;-69
2023/09/13 08:32:37;;;;;;;1.20;1.00;;;;;;;16.68;88.27;100388.97;5107945;28;20028;-70
2023/09/13 08:35:03;;;;;;;1.55;1.10;;;;;;;17.15;89.33;100382.13;5089835;28;20104;-70
2023/09/13 08:37:28;;;;;;;1.52;1.05;;;;;;;17.86;88.49;100378.59;5107890;28;20034;-70
2023/09/13 08:39:54;;;;;;;3.22;1.00;;;;;;;18.25;87.16;100379.72;5107947;28;20103;-70
2023/09/13 08:42:19;;;;;;;0.80;0.57;;;;;;;18.81;87.07;100380.00;5107976;28;20042;-71
2023/09/13 08:44:46;;;;;;;2.05;0.70;;;;;;;19.42;86.63;100384.38;5107681;28;20028;-70
2023/09/13 08:47:11;;;;;;;1.92;1.00;;;;;;;20.07;86.85;100388.41;5107845;28;20050;-69
2023/09/13 08:49:38;;;;;;;0.90;0.80;;;;;;;20.75;84.79;100386.78;5107649;28;20017;-69
2023/09/13 08:52:05;;;;;;;1.23;0.82;;;;;;;21.08;82.34;100385.13;5107092;28;20439;-70
2023/09/13 08:54:32;;;;;;;2.00;0.80;;;;;;;21.20;80.32;100393.34;5089142;28;20052;-70
2023/09/13 08:56:58;;;;;;;1.58;0.88;;;;;;;20.83;79.02;100394.28;5107531;28;20031;-69
2023/09/13 08:59:24;;;;;;;2.35;0.90;;;;;;;20.19;77.21;100387.78;5107452;28;20023;-70
2023/09/13 09:01:51;;;;;;;2.20;1.27;;;;;;;19.69;79.05;100390.16;5107349;28;20179;-69
2023/09/13 09:04:18;;;;;;;1.33;0.70;;;;;;;19.88;80.85;100397.16;5107647;28;20051;-70
2023/09/13 09:06:44;;;;;;;0.77;0.70;;;;;;;20.28;80.28;100389.13;5107426;28;20020;-70
2023/09/13 09:09:11;;;;;;;2.28;1.00;;;;;;;20.46;79.75;100399.69;5107214;28;20545;-69
2023/09/13 09:11:41;;;;;;;2.25;0.60;;;;;;;20.56;79.17;100395.66;5107406;28;20047;-69
2023/09/13 09:14:08;;;;;;;2.22;0.70;;;;;;;21.07;79.86;100387.88;5107357;28;20024;-70
2023/09/13 09:16:35;;;;;;;10.88;0.90;;;;;;;21.26;79.05;100398.28;5089017;28;20240;-70
2023/09/13 09:19:01;;;;;;;1.05;0.82;;;;;;;21.14;79.21;100405.94;5107122;28;20031;-70
2023/09/13 09:21:27;;;;;;;1.30;0.70;;;;;;;21.19;78.17;100405.69;5088712;28;20024;-69
2023/09/13 09:23:54;;;;;;;0.55;0.55;;;;;;;21.36;76.65;100412.69;5106018;28;20028;-70
2023/09/13 09:26:20;;;;;;;0.93;0.73;;;;;;;21.73;76.00;100401.03;5107197;28;20076;-69
2023/09/13 09:28:46;;;;;;;0.43;0.43;;;;;;;22.09;72.82;100401.72;5106896;28;20024;-69
2023/09/13 09:31:12;;;;;;;1.10;0.60;;;;;;;22.36;72.76;100401.94;5107343;28;20022;-70
2023/09/13 09:33:39;;;;;;;1.40;0.88;;;;;;;22.66;72.34;100394.94;5088706;28;20020;-69
2023/09/13 09:36:05;;;;;;;0.82;0.52;;;;;;;22.89;72.22;100395.34;5106675;28;20073;-69
2023/09/13 09:38:31;;;;;;;0.68;0.55;;;;;;;23.02;70.97;100393.66;5106769;28;20046;-68
2023/09/13 09:40:59;;;;;;;1.25;0.80;;;;;;;23.02;71.55;100395.44;5106785;28;20336;-69
2023/09/13 09:43:25;;;;;;;1.42;1.02;;;;;;;23.43;71.41;100382.41;5106571;28;20031;-70
2023/09/13 09:45:50;;;;;;;1.40;0.88;;;;;;;23.84;70.76;100396.56;5106852;28;20036;-69
2023/09/13 09:48:15;;;;;;;1.17;0.80;;;;;;;24.00;68.03;100392.00;5106670;28;20023;-69
2023/09/13 09:51:08;;;;;;;1.65;0.75;;;;;;;24.05;68.14;100396.13;5106678;28;20024;-68
2023/09/13 09:53:34;;;;;;;0.65;0.65;;;;;;;24.54;69.15;100397.31;5102875;28;20040;-70
2023/09/13 09:56:00;;;;;;;2.88;1.35;;;;;;;24.94;66.70;100396.44;5106731;28;20028;-69
2023/09/13 09:58:25;;;;;;;1.30;0.68;;;;;;;24.78;63.73;100406.41;5106272;28;20028;-69
2023/09/13 10:00:52;;;;;;;0.93;0.70;;;;;;;24.17;65.32;100395.34;5106349;28;20012;-69
2023/09/13 10:03:19;;;;;;;0.93;0.70;;;;;;;24.22;65.50;100398.53;5088086;28;20024;-69
2023/09/13 10:06:10;;;;;;;1.25;0.75;;;;;;;23.83;67.12;100397.53;5106178;28;20020;-69
2023/09/13 10:08:40;;;;;;;7.53;1.08;;;;;;;23.57;66.83;100386.81;5106228;28;20031;-68
2023/09/13 10:11:07;;;;;;;0.75;0.50;;;;;;;23.70;62.59;100393.03;5106447;28;20039;-69
2023/09/13 10:13:33;;;;;;;0.68;0.60;;;;;;;23.75;61.05;100404.16;5088094;28;20039;-69
2023/09/13 10:16:00;;;;;;;1.45;0.75;;;;;;;23.40;63.14;100404.66;5106169;28;20104;-69
2023/09/13 10:18:26;;;;;;;0.80;0.75;;;;;;;23.09;63.38;100403.84;5106022;28;20077;-69
2023/09/13 10:20:57;;;;;;;1.00;0.65;;;;;;;23.07;64.51;100408.41;5087534;28;20016;-68
2023/09/13 10:23:29;;;;;;;0.82;0.50;;;;;;;24.04;62.94;100410.34;5106182;28;20031;-69
2023/09/13 10:25:55;;;;;;;;;;;;;;;25.00;60.23;100401.31;5106624;28;20024;-69
2023/09/13 10:28:26;;;;;;;0.93;0.70;;;;;;;25.55;59.55;100399.28;5105922;28;19918;-67
2023/09/13 10:30:53;;;;;;;0.20;0.20;;;;;;;25.61;61.13;100390.88;5105847;28;20024;-68
2023/09/13 10:33:21;;;;;;;0.80;0.50;;;;;;;25.94;61.05;100394.69;5087531;28;20035;-69
2023/09/13 10:35:50;;;;;;;0.88;0.63;;;;;;;26.96;61.38;100406.63;5105172;28;20038;-69
2023/09/13 10:38:37;;;;;;;0.80;0.68;;;;;;;27.39;56.91;100401.56;5105633;28;20024;-70
2023/09/13 10:41:05;;;;;;;1.05;0.47;;;;;;;26.72;55.53;100404.91;5087562;28;20023;-69
2023/09/13 10:43:32;;;;;;;0.50;0.50;;;;;;;25.98;58.57;100416.59;5105622;28;20073;-69
2023/09/13 10:45:57;;;;;;;0.95;0.70;;;;;;;25.58;60.49;100417.66;5105558;28;20020;-69
2023/09/13 10:48:24;;;;;;;0.65;0.47;;;;;;;25.46;60.73;100420.25;5105394;28;20060;-71
2023/09/13 10:50:50;;;;;;;0.68;0.45;;;;;;;25.93;59.77;100418.75;5105210;28;20039;-70
2023/09/13 10:53:16;;;;;;;0.52;0.43;;;;;;;26.26;56.09;100427.00;5105152;28;20024;-68
2023/09/13 10:55:42;;;;;;;1.55;1.02;;;;;;;26.83;57.64;100427.19;5105555;28;20028;-69
2023/09/13 10:58:09;;;;;;;0.90;0.50;;;;;;;27.42;56.56;100427.97;5105274;28;20464;-69
2023/09/13 11:00:36;;;;;;;0.95;0.60;;;;;;;27.51;56.09;100431.69;5105454;28;20031;-69
2023/09/13 11:03:04;;;;;;;0.65;0.50;;;;;;;27.32;55.18;100434.97;5105272;28;20028;-69
2023/09/13 11:05:31;;;;;;;0.90;0.63;;;;;;;26.85;51.58;100433.25;5087017;28;20043;-68
2023/09/13 11:07:57;;;;;;;0.47;0.45;;;;;;;26.59;51.55;100436.94;5105133;28;20053;-68
2023/09/13 11:10:22;;;;;;;2.72;1.35;;;;;;;26.81;53.07;100439.75;5105097;28;20027;-69
2023/09/13 11:12:51;;;;;;;0.77;0.77;;;;;;;26.93;53.84;100433.50;5105157;28;20020;-69
2023/09/13 11:15:24;;;;;;;1.55;0.70;;;;;;;26.75;54.22;100425.13;5086849;28;20066;-69
2023/09/13 11:17:54;;;;;;;1.42;0.73;;;;;;;26.23;49.73;100436.09;5105087;28;20050;-69
2023/09/13 11:20:37;;;;;;;0.73;0.40;;;;;;;25.28;46.96;100441.03;5104831;28;20131;-69